Logo AVAMET
Benvolgut visitant, si us plau, ingressa Recuperar contrasenya
AVAMET paisatges

Inforatge Alcalà de Xivert Alcossebre

Dades diàries. Acumulats / Últims 30 dies disponibles

Data Temperatura (°C) Humitat rel. (%) Pressió rel. (hPa) Vent (km/h) Precipitació
Mínima Mitjana Màxima Amplitud
tèrmica
Mínima Mitjana Màxima Mínima Mitjana Màxima Predom. Mitjana Ràfega
màxima
Total
(mm)
Índex-n
Mínima Mitjana Màxima Mínima Mitjana Màxima n
0 a 1
P0 max
mm 5'
Dades mensuals acumulades fins l'últim dia disponible
10/2020 9,4 13,4 16,9 18,7 18,9 23,5 30,1 20,7 26 62 96 992 1.017 1.027   7,4 69,2 3,0
Dades anuals acumulades fins l'últim dia disponible
2020 1,4 14,3 24,3 18,8 10,7 22,8 31,8 30,4 20 75 98 992 1.019 1.036   4,8 78,9 487,0
Últims 30 dies disponibles
19-10-2020 13,4     17,8     21,8 8,4 71 81 90 1.021 1.022 1.024 W 2,4 17,7 0,0
18-10-2020 9,9     16,0     20,6 10,7 60 76 87 1.021 1.022 1.024 E 2,4 14,5 0,0
17-10-2020 9,4     15,3     20,1 10,7 47 66 80 1.018 1.019 1.021 WSW 3,4 16,1 0,0
16-10-2020 12,2     15,2     18,9 6,7 35 50 65 1.018 1.019 1.020 NW 11,1 53,1 0,0
15-10-2020 13,2     17,1     21,9 8,7 31 42 51 1.014 1.016 1.019 NW 10,5 48,3 0,0
14-10-2020 15,4     18,8     21,8 6,4 32 46 65 1.010 1.011 1.015 NW 14,6 48,3 0,6
13-10-2020 13,3     20,2     26,2 12,9 39 57 74 1.013 1.015 1.020 NW 7,2 49,9 0,0
12-10-2020 14,7     18,2     22,7 8,0 34 47 58 1.020 1.021 1.023 NW 18,8 64,4 0,0
11-10-2020 15,7     18,6     22,3 6,6 36 44 51 1.020 1.022 1.024 NW 18,7 69,2 0,0
10-10-2020 16,9     20,8     25,6 8,7 50 75 94 1.022 1.023 1.025 NW 4,2 43,5 0,0
09-10-2020 16,8     20,7     24,1 7,3 77 87 96 1.023 1.023 1.025 SSE 2,1 19,3 0,0
08-10-2020 16,0     20,6     24,4 8,4 74 85 94 1.024 1.025 1.027 SSE 2,9 24,1 0,0
07-10-2020 16,7     23,3     30,1 13,4 39 59 80 1.020 1.022 1.025 NW 5,5 41,8 0,0
06-10-2020 13,8     20,1     26,2 12,4 36 58 79 1.020 1.021 1.023 W 5,1 22,5 0,0
05-10-2020 12,3     17,9     22,3 10,0 41 56 69 1.013 1.017 1.022 W 5,3 27,4 0,0
04-10-2020 10,1     18,1     25,2 15,1 26 51 73 1.006 1.009 1.013 W 8,4 40,2 0,0
03-10-2020 9,6     17,2     23,2 13,6 40 52 80 1.001 1.005 1.010 WNW 6,0 30,6 0,0
02-10-2020 9,7     17,9     23,3 13,6 51 64 89 992 997 1.005 WSW 8,5 62,8 2,4
01-10-2020 15,6     21,3     25,8 10,2 49 77 93 1.006 1.010 1.015 E 3,1 17,7 0,0
30-09-2020 15,1     20,2     24,5 9,4 70 80 92 1.015 1.017 1.019 SO 2,5 16,1 0,0
29-09-2020 13,1     18,9     24,0 10,9 48 68 85 1.019 1.020 1.022 E 2,6 17,7 0,0
28-09-2020 15,1     19,6     24,4 9,3 36 52 76 1.015 1.017 1.020 NW 9,7 56,3 0,0
27-09-2020 17,1     20,6     25,8 8,7 20 44 62 1.008 1.012 1.017 NW 12,6 70,8 0,0
26-09-2020 15,1     20,1     26,5 11,4 33 48 62 1.010 1.016 1.022 WNW 9,5 46,7 0,0
25-09-2020 17,1     21,2     24,7 7,6 28 46 81 1.013 1.017 1.022 NW 9,7 45,1 0,0
24-09-2020 18,4     23,0     27,7 9,3 54 73 87 1.012 1.013 1.014 ENE 3,2 22,5 0,0
23-09-2020 16,3     21,6     26,3 10,0 69 83 92 1.012 1.013 1.014 E 1,9 16,1 1,2 0,42 0,40
22-09-2020 17,5     21,4     26,0 8,5 62 79 91 1.014 1.016 1.017 E 2,9 33,8 4,4
21-09-2020 18,8     23,3     27,1 8,3 62 73 85 1.016 1.017 1.018 E 2,4 22,5 0,0
20-09-2020 18,4     24,6     28,1 9,7 46 61 77 1.016 1.017 1.018 SSE 4,2 25,7 0,0
Últims 13 mesos disponibles
09/2020 13,1 18,1 20,4 22,8 24,0 27,0 31,5 18,4 44 71 85 1.012 1.019 1.025 E 4,6 70,8 35,6
08/2020 17,3 22,0 24,3 26,3 25,9 29,7 30,9 13,6 48 72 85 1.006 1.016 1.021 E 4,7 46,7 1,0
07/2020 17,8 20,7 23,9 25,4 26,6 28,8 31,8 14,0 57 75 84 1.013 1.018 1.023 E 4,4 37,0 12,8
06/2020 14,4 17,4 20,7 22,0 21,2 25,7 29,6 15,2 58 76 87 1.005 1.016 1.023 E 4,6 51,5 35,4
05/2020 11,6 14,9 17,7 20,0 18,1 23,9 28,0 16,4 63 77 88 1.006 1.018 1.030 E 4,1 46,7 56,2
04/2020 5,7 11,5 15,2 15,3 15,1 18,9 25,9 20,2 64 82 90 1.006 1.017 1.028 E 4,3 59,5 106,4
03/2020 5,3 9,2 13,9 13,6 11,5 17,3 24,3 19,0 47 73 91 1.006 1.018 1.029 E 7,1 78,9 106,0
02/2020 5,1 8,4 12,3 13,5 15,1 18,5 25,6 20,5 48 75 88 1.013 1.027 1.034 E 3,8 67,6 0,6
01/2020 1,4 6,4 11,6 10,6 10,7 15,0 20,3 18,9 65 81 95 1.020 1.027 1.034 E 4,1 78,9 130,0
12/2019 6,1 9,4 15,9 13,4 12,9 17,5 25,7 19,6 45 75 92 1.002 1.020 1.034 W 4,4 74,0 79,0
11/2019 4,6 9,8 16,3 14,7 15,1 19,3 25,6 21,0 44 60 86 997 1.011 1.019 NW 6,5 82,1 5,6
10/2019 11,2 15,4 21,2 19,8 19,4 24,1 28,8 17,6 46 74 88 1.007 1.018 1.023 SSO 4,1 70,8 33,2
09/2019 14,3 19,4 22,8 23,2 23,9 26,6 27,9 13,6 48 75 87 1.011 1.019 1.027 SSE 5,3 72,2 52,4
Tots els anys disponibles
Temperatura (°C)
Humitat relativa (%)
Velocitat del vent i ràfega màxima (km/h)
Direcció del vent (°)
Pressió (hPa)
Precipitació (mm)
Nota sobre les dades: s'avisa a l'usuari de la provisionalitat i no oficialitat d'aquestes dades
Logo AVAMET blanc
Web allotjada a Sollutia
Llicència de Creative CommonsLa web d'AVAMET i els seus continguts estan subjectes a una llicència de
Reconeixement - No Comercial - Compartir igual
Últimes estacions: Alfondeguilla (Soci), Santa Magdalena de Polpís (Soci),  Benafigos (Ajuntament Soci), Carlet - Ajuntament (Inforatge), Montroi (Inforatge), Bronchales (Limítrofe-Terol/Aj. Soci), Sueca - Muntanyeta dels Sants (Inforatge), Vilamarxant - Ajuntament (Aj. Soci/Inforatge), Monteagudo del Castillo - El Portero (Limítrofe-Terol/Soci), Calzadilla de los Barros (Limítrofe-Badajoz/Soci) - - -